Time;durP1;ratioP1;P1;durP2;ratioP2;P2;SDS_P1;SDS_P2;PMS_P1;PMS_P2;Temp;Humidity;BMP_temperature;BMP_pressure;BME280_temperature;BME280_humidity;BME280_pressure;Samples;Min_cycle;Max_cycle;Signal;HPM_P1;HPM_P2
2021/11/26 00:01:04;;;;;;;36.10;19.37;;;;;;;-0.73;78.10;101505.26;1785478;79;21013;-80
2021/11/26 00:03:32;;;;;;;32.13;19.25;;;;;;;-0.74;78.05;101501.80;1786699;79;21900;-78
2021/11/26 00:05:59;;;;;;;34.95;20.05;;;;;;;-0.75;78.07;101501.38;1786165;80;21357;-79
2021/11/26 00:08:27;;;;;;;34.63;19.23;;;;;;;-0.76;77.98;101497.07;1785951;79;20883;-78
2021/11/26 00:10:54;;;;;;;39.05;21.48;;;;;;;-0.78;78.01;101496.20;1785675;79;21119;-79
2021/11/26 00:13:27;;;;;;;30.40;18.32;;;;;;;-0.79;78.03;101494.94;1785765;79;20930;-79
2021/11/26 00:15:52;;;;;;;34.53;19.60;;;;;;;-0.79;78.03;101482.06;1785776;79;20895;-79
2021/11/26 00:18:20;;;;;;;33.98;18.52;;;;;;;-0.80;77.96;101485.08;1785861;79;20923;-78
2021/11/26 00:20:48;;;;;;;30.95;18.10;;;;;;;-0.81;77.97;101484.63;1785479;79;20891;-78
2021/11/26 00:23:15;;;;;;;31.10;20.32;;;;;;;-0.82;77.99;101475.61;1785423;79;22069;-79
2021/11/26 00:25:42;;;;;;;36.28;22.62;;;;;;;-0.82;77.92;101480.76;1785377;79;20941;-78
2021/11/26 00:28:10;;;;;;;34.03;18.45;;;;;;;-0.85;77.84;101475.18;1785529;79;20938;-80
2021/11/26 00:30:37;;;;;;;30.15;19.50;;;;;;;-0.84;77.84;101473.05;1785386;79;20852;-79
2021/11/26 00:33:04;;;;;;;35.28;18.90;;;;;;;-0.85;77.81;101468.31;1785973;79;20903;-79
2021/11/26 00:35:31;;;;;;;38.30;17.67;;;;;;;-0.82;77.81;101466.59;1785650;79;21125;-78
2021/11/26 00:37:57;;;;;;;30.37;18.50;;;;;;;-0.83;77.74;101458.02;1785937;79;21314;-79
2021/11/26 00:40:24;;;;;;;30.48;18.45;;;;;;;-0.81;77.68;101452.88;1785576;80;20867;-78
2021/11/26 00:42:52;;;;;;;27.80;17.57;;;;;;;-0.81;77.63;101447.30;1785540;79;20970;-79
2021/11/26 00:45:21;;;;;;;31.75;20.12;;;;;;;-0.81;77.58;101428.42;1785912;79;20883;-76
2021/11/26 00:47:49;;;;;;;33.45;18.17;;;;;;;-0.80;77.63;101435.27;1785518;78;21132;-79
2021/11/26 00:50:17;;;;;;;34.20;17.32;;;;;;;-0.81;77.64;101425.84;1785509;80;20946;-79
2021/11/26 00:52:44;;;;;;;34.58;18.73;;;;;;;-0.81;77.67;101427.13;1786224;79;21422;-81
2021/11/26 00:55:12;;;;;;;32.67;18.40;;;;;;;-0.82;77.67;101428.86;1785647;79;21377;-81
2021/11/26 00:57:40;;;;;;;34.08;18.05;;;;;;;-0.79;77.68;101417.69;1787256;79;20926;-80
2021/11/26 01:00:12;;;;;;;33.42;21.23;;;;;;;-0.80;77.64;101409.52;1787850;79;21346;-81
2021/11/26 01:02:40;;;;;;;31.37;18.57;;;;;;;-0.80;77.59;101409.12;1787250;79;20895;-80
2021/11/26 01:05:08;;;;;;;31.40;18.80;;;;;;;-0.79;77.55;101408.68;1786420;79;21389;-79
2021/11/26 01:07:35;;;;;;;30.88;17.87;;;;;;;-0.83;77.52;101400.09;1785901;79;21570;-79
2021/11/26 01:10:06;;;;;;;35.68;19.35;;;;;;;-0.85;77.51;101388.92;1785871;80;20970;-79
2021/11/26 01:12:33;;;;;;;31.70;17.98;;;;;;;-0.87;77.56;101382.52;1785712;79;20978;-80
2021/11/26 01:15:00;;;;;;;26.75;16.25;;;;;;;-0.87;77.69;101379.05;1785805;79;20958;-81
2021/11/26 01:17:27;;;;;;;31.02;17.10;;;;;;;-0.88;77.81;101379.92;1785888;79;20892;-80
2021/11/26 01:19:54;;;;;;;30.43;17.17;;;;;;;-0.88;77.89;101377.36;1785458;79;21036;-78
2021/11/26 01:22:21;;;;;;;34.18;18.30;;;;;;;-0.88;78.01;101364.05;1785990;80;20967;-79
2021/11/26 01:24:47;;;;;;;33.98;19.87;;;;;;;-0.88;78.14;101368.34;1785609;79;21060;-80
2021/11/26 01:27:15;;;;;;;33.20;19.92;;;;;;;-0.90;78.20;101364.47;1785556;79;21412;-79
2021/11/26 01:29:42;;;;;;;35.30;20.60;;;;;;;-0.90;78.23;101373.48;1785524;79;21006;-77
2021/11/26 01:32:09;;;;;;;33.30;19.30;;;;;;;-0.91;78.28;101370.91;1785917;80;21406;-78
2021/11/26 01:34:37;;;;;;;39.15;21.15;;;;;;;-0.92;78.42;101366.19;1785842;79;20926;-79
2021/11/26 01:37:04;;;;;;;33.78;18.98;;;;;;;-0.91;78.54;101370.49;1786039;79;21480;-80
2021/11/26 01:39:32;;;;;;;43.30;20.85;;;;;;;-0.89;78.61;101369.19;1785674;80;20883;-79
2021/11/26 01:41:58;;;;;;;33.28;19.27;;;;;;;-0.89;78.79;101358.48;1785797;79;20900;-80
2021/11/26 01:44:25;;;;;;;40.65;21.20;;;;;;;-0.86;78.70;101353.75;1785609;79;21464;-80
2021/11/26 01:46:52;;;;;;;41.37;21.73;;;;;;;-0.87;78.71;101350.73;1785678;78;20990;-79
2021/11/26 01:49:19;;;;;;;45.58;20.95;;;;;;;-0.86;78.69;101346.88;1785644;79;21096;-80
2021/11/26 01:51:46;;;;;;;42.25;22.90;;;;;;;-0.85;78.71;101346.01;1787185;79;21072;-82
2021/11/26 01:54:13;;;;;;;44.93;22.73;;;;;;;-0.86;78.65;101341.73;1788321;79;20927;-81
2021/11/26 01:56:40;;;;;;;38.73;23.00;;;;;;;-0.85;78.70;101342.58;1786229;79;21392;-81
2021/11/26 01:59:07;;;;;;;44.20;21.93;;;;;;;-0.87;78.70;101332.31;1786531;79;20982;-82
2021/11/26 02:01:34;;;;;;;39.03;23.67;;;;;;;-0.87;78.71;101336.17;1786389;79;21091;-80
2021/11/26 02:04:01;;;;;;;40.25;22.98;;;;;;;-0.86;78.82;101329.30;1786197;79;20903;-80
2021/11/26 02:06:29;;;;;;;46.48;24.52;;;;;;;-0.88;78.87;101324.14;1785555;79;20914;-80
2021/11/26 02:08:56;;;;;;;47.20;25.20;;;;;;;-0.87;78.96;101330.14;1785611;79;21426;-81
2021/11/26 02:11:24;;;;;;;50.85;26.62;;;;;;;-0.87;79.01;101331.42;1785846;79;20939;-82
2021/11/26 02:13:51;;;;;;;49.45;25.70;;;;;;;-0.88;79.00;101325.86;1785586;79;21085;-82
2021/11/26 02:16:18;;;;;;;58.68;28.77;;;;;;;-0.89;78.87;101326.70;1785970;80;20887;-80
2021/11/26 02:18:48;;;;;;;44.38;26.12;;;;;;;-0.89;78.87;101325.42;1785801;79;20962;-81
2021/11/26 02:21:17;;;;;;;55.50;28.40;;;;;;;-0.89;78.84;101326.30;1785594;79;20926;-82
2021/11/26 02:23:47;;;;;;;52.98;25.12;;;;;;;-0.90;78.77;101322.43;1785631;79;20981;-82
2021/11/26 02:26:15;;;;;;;43.83;25.40;;;;;;;-0.91;78.60;101327.14;1785674;79;21111;-80
2021/11/26 02:28:42;;;;;;;52.15;26.55;;;;;;;-0.93;78.54;101323.30;1785960;79;20942;-82
2021/11/26 02:31:09;;;;;;;45.30;24.72;;;;;;;-0.94;78.53;101322.00;1785595;79;21424;-79
2021/11/26 02:33:39;;;;;;;40.15;23.38;;;;;;;-0.96;78.47;101321.99;1785447;79;20911;-79
2021/11/26 02:36:06;;;;;;;46.45;23.05;;;;;;;-0.96;78.45;101322.43;1785750;79;21501;-80
2021/11/26 02:38:33;;;;;;;44.83;22.20;;;;;;;-1.00;78.61;101316.85;1785655;79;21074;-80
2021/11/26 02:41:00;;;;;;;38.65;21.33;;;;;;;-1.01;78.64;101317.29;1785742;79;21354;-81
2021/11/26 02:43:27;;;;;;;39.40;21.97;;;;;;;-1.02;78.68;101319.86;1785939;79;20915;-81
2021/11/26 02:45:54;;;;;;;39.78;20.75;;;;;;;-1.05;78.70;101325.43;1786921;79;21052;-81
2021/11/26 02:48:21;;;;;;;48.50;22.85;;;;;;;-1.05;78.69;101326.72;1787706;78;20934;-77
2021/11/26 02:50:48;;;;;;;41.63;21.23;;;;;;;-1.08;78.85;101316.88;1786284;79;21122;-82
2021/11/26 02:53:17;;;;;;;44.95;21.75;;;;;;;-1.09;78.99;101300.98;1785853;79;20966;-78
2021/11/26 02:55:44;;;;;;;37.60;21.05;;;;;;;-1.10;79.04;101305.72;1785751;79;20943;-80
2021/11/26 02:58:11;;;;;;;42.50;23.52;;;;;;;-1.12;79.12;101301.85;1785547;79;20947;-81
2021/11/26 03:00:40;;;;;;;41.37;22.58;;;;;;;-1.12;79.11;101299.72;1785620;80;21401;-80
2021/11/26 03:03:07;;;;;;;35.70;20.62;;;;;;;-1.12;79.14;101295.42;1785667;79;21937;-79
2021/11/26 03:05:34;;;;;;;47.65;23.50;;;;;;;-1.14;79.22;101289.84;1785501;79;20852;-80
2021/11/26 03:08:01;;;;;;;41.15;21.27;;;;;;;-1.14;79.39;101292.42;1785590;79;20883;-80
2021/11/26 03:10:29;;;;;;;36.45;19.07;;;;;;;-1.12;79.25;101295.86;1785385;79;20891;-79
2021/11/26 03:13:01;;;;;;;39.25;21.68;;;;;;;-1.14;79.40;101296.28;1785820;79;21322;-79
2021/11/26 03:15:29;;;;;;;38.85;21.10;;;;;;;-1.13;79.39;101285.15;1785647;77;21195;-80
2021/11/26 03:17:56;;;;;;;37.83;21.02;;;;;;;-1.14;79.40;101283.42;1785776;80;20935;-80
2021/11/26 03:20:25;;;;;;;37.03;20.37;;;;;;;-1.14;79.37;101284.27;1786666;79;21479;-80
2021/11/26 03:22:52;;;;;;;33.15;20.30;;;;;;;-1.12;79.45;101288.13;1785793;79;20990;-80
2021/11/26 03:25:20;;;;;;;40.10;21.20;;;;;;;-1.13;79.49;101287.28;1785744;79;20947;-80
2021/11/26 03:27:48;;;;;;;33.63;18.75;;;;;;;-1.14;79.46;101286.84;1785415;79;21160;-80
2021/11/26 03:30:18;;;;;;;37.38;22.95;;;;;;;-1.13;79.41;101286.00;1785602;79;21424;-80
2021/11/26 03:32:45;;;;;;;45.10;22.25;;;;;;;-1.15;79.56;101274.00;1785886;79;20954;-80
2021/11/26 03:35:13;;;;;;;37.33;21.68;;;;;;;-1.14;79.58;101285.55;1785526;79;20958;-80
2021/11/26 03:37:39;;;;;;;49.18;23.75;;;;;;;-1.13;79.61;101281.29;1785953;79;21405;-80
2021/11/26 03:40:08;;;;;;;42.30;22.55;;;;;;;-1.12;79.58;101282.98;1786500;79;21127;-79
2021/11/26 03:42:35;;;;;;;45.08;22.70;;;;;;;-1.11;79.58;101276.56;1786708;79;20982;-82
2021/11/26 03:45:04;;;;;;;49.27;21.20;;;;;;;-1.12;79.69;101282.55;1786003;79;21014;-80
2021/11/26 03:47:31;;;;;;;45.15;22.15;;;;;;;-1.12;79.69;101272.25;1785178;78;20863;-80
2021/11/26 03:49:58;;;;;;;48.98;24.07;;;;;;;-1.10;79.77;101283.84;1785724;79;21329;-80
2021/11/26 03:52:25;;;;;;;43.98;20.90;;;;;;;-1.10;79.66;101280.83;1785720;79;21033;-79
2021/11/26 03:54:53;;;;;;;42.67;22.73;;;;;;;-1.09;79.79;101284.26;1785563;79;21432;-80
2021/11/26 03:57:21;;;;;;;34.18;18.60;;;;;;;-1.12;79.78;101270.12;1785441;79;20851;-81
2021/11/26 03:59:47;;;;;;;40.67;19.65;;;;;;;-1.10;79.77;101266.68;1785504;80;20911;-80
2021/11/26 04:02:14;;;;;;;40.80;21.85;;;;;;;-1.12;79.87;101276.12;1785951;79;21444;-79
2021/11/26 04:04:42;;;;;;;42.38;20.77;;;;;;;-1.10;79.84;101275.69;1785605;80;21130;-81
2021/11/26 04:07:09;;;;;;;43.35;19.85;;;;;;;-1.10;79.91;101281.27;1785692;79;21005;-80
2021/11/26 04:09:35;;;;;;;37.93;20.20;;;;;;;-1.10;79.87;101270.54;1785630;79;20935;-79
2021/11/26 04:12:02;;;;;;;35.85;19.40;;;;;;;-1.10;79.96;101274.84;1785863;79;20962;-80
2021/11/26 04:14:29;;;;;;;34.78;19.17;;;;;;;-1.12;80.10;101263.25;1785773;79;20883;-82
2021/11/26 04:16:58;;;;;;;38.42;19.10;;;;;;;-1.09;80.11;101270.10;1785712;79;21125;-79
2021/11/26 04:19:25;;;;;;;46.70;19.95;;;;;;;-1.09;80.16;101262.38;1786042;79;20954;-79
2021/11/26 04:21:52;;;;;;;37.67;19.25;;;;;;;-1.08;80.08;101258.97;1785796;79;20934;-80
2021/11/26 04:24:19;;;;;;;29.90;17.60;;;;;;;-1.08;80.17;101261.54;1785626;79;20907;-80
2021/11/26 04:26:46;;;;;;;37.70;21.52;;;;;;;-1.08;80.30;101259.81;1785771;79;21444;-78
2021/11/26 04:29:13;;;;;;;36.70;20.52;;;;;;;-1.07;80.28;101258.97;1785738;79;21112;-77
2021/11/26 04:31:41;;;;;;;41.73;21.02;;;;;;;-1.07;80.38;101257.69;1785710;79;20899;-79
2021/11/26 04:34:08;;;;;;;38.23;22.77;;;;;;;-1.05;80.41;101264.95;1786351;79;20867;-78
2021/11/26 04:36:36;;;;;;;37.45;21.68;;;;;;;-1.04;80.42;101273.55;1786924;79;20973;-78
2021/11/26 04:39:03;;;;;;;46.02;21.23;;;;;;;-1.05;80.42;101275.67;1785835;79;20978;-80
2021/11/26 04:41:31;;;;;;;43.87;21.80;;;;;;;-1.03;80.31;101275.69;1785636;80;21968;-80
2021/11/26 04:43:58;;;;;;;50.95;22.58;;;;;;;-1.05;80.38;101283.40;1785662;79;20971;-80
2021/11/26 04:46:25;;;;;;;38.85;21.65;;;;;;;-1.02;80.39;101293.71;1785671;80;20958;-81
2021/11/26 04:48:52;;;;;;;48.25;24.85;;;;;;;-1.03;80.44;101295.84;1785559;78;20934;-80
2021/11/26 04:51:20;;;;;;;46.45;25.48;;;;;;;-1.02;80.42;101294.12;1785616;79;21063;-82
2021/11/26 04:53:49;;;;;;;39.80;22.35;;;;;;;-1.01;80.48;101290.70;1785696;79;21175;-80
2021/11/26 04:56:16;;;;;;;41.63;22.75;;;;;;;-1.02;80.64;101295.41;1785571;79;20907;-80
2021/11/26 04:58:43;;;;;;;43.65;23.57;;;;;;;-0.99;80.52;101291.56;1785582;79;21014;-80
2021/11/26 05:01:10;;;;;;;49.40;24.77;;;;;;;-1.01;80.54;101289.41;1785530;79;21435;-80
2021/11/26 05:03:39;;;;;;;48.50;25.92;;;;;;;-1.01;80.67;101285.11;1785944;79;20926;-80
2021/11/26 05:06:06;;;;;;;48.70;25.25;;;;;;;-1.00;80.78;101293.28;1786031;79;21116;-79
2021/11/26 05:08:33;;;;;;;54.70;28.75;;;;;;;-0.99;80.78;101293.70;1785984;79;21009;-80
2021/11/26 05:10:59;;;;;;;56.33;25.02;;;;;;;-0.98;80.73;101297.12;1785659;80;20915;-79
2021/11/26 05:13:29;;;;;;;45.30;22.87;;;;;;;-0.96;80.81;101301.40;1785944;79;20967;-81
2021/11/26 05:15:58;;;;;;;54.35;26.40;;;;;;;-0.96;80.98;101305.27;1785760;80;20907;-80
2021/11/26 05:18:26;;;;;;;48.50;24.30;;;;;;;-0.93;81.00;101299.28;1785740;79;21069;-80
2021/11/26 05:20:55;;;;;;;48.45;24.90;;;;;;;-0.92;81.14;101308.27;1785661;79;20887;-79
2021/11/26 05:23:23;;;;;;;44.90;23.25;;;;;;;-0.88;81.21;101315.56;1785848;79;21333;-82
2021/11/26 05:25:52;;;;;;;49.70;25.92;;;;;;;-0.87;81.13;101314.28;1785799;79;20903;-80
2021/11/26 05:28:18;;;;;;;53.10;26.20;;;;;;;-0.84;81.12;101314.27;1787040;79;20918;-81
2021/11/26 05:30:46;;;;;;;46.77;25.17;;;;;;;-0.80;81.08;101314.25;1787174;79;21116;-80
2021/11/26 05:33:13;;;;;;;49.18;25.70;;;;;;;-0.77;80.98;101317.69;1785757;79;20990;-82
2021/11/26 05:35:39;;;;;;;47.00;25.20;;;;;;;-0.76;80.98;101312.95;1785897;80;20895;-82
2021/11/26 05:38:06;;;;;;;43.90;24.15;;;;;;;-0.74;80.96;101311.67;1785763;79;20986;-81
2021/11/26 05:40:35;;;;;;;47.80;24.98;;;;;;;-0.69;80.90;101308.64;1785616;79;21484;-81
2021/11/26 05:43:02;;;;;;;44.45;25.32;;;;;;;-0.67;80.97;101314.24;1786024;79;21720;-82
2021/11/26 05:45:29;;;;;;;45.98;24.23;;;;;;;-0.64;80.98;101312.94;1785579;80;20848;-81
2021/11/26 05:47:56;;;;;;;50.48;27.90;;;;;;;-0.60;81.02;101306.47;1785520;78;20938;-77
2021/11/26 05:50:23;;;;;;;47.85;23.85;;;;;;;-0.56;81.11;101308.19;1785675;79;20905;-80
2021/11/26 05:52:50;;;;;;;45.60;25.82;;;;;;;-0.52;81.12;101317.19;1785653;80;20891;-81
2021/11/26 05:55:23;;;;;;;51.68;25.25;;;;;;;-0.48;81.17;101320.63;1785513;79;21095;-82
2021/11/26 05:57:51;;;;;;;47.03;25.00;;;;;;;-0.43;81.22;101316.30;1785736;79;20855;-82
2021/11/26 06:00:20;;;;;;;42.73;24.80;;;;;;;-0.38;81.22;101314.55;1785528;79;21266;-79
2021/11/26 06:02:47;;;;;;;53.85;27.00;;;;;;;-0.32;81.24;101309.83;1785479;79;20954;-81
2021/11/26 06:05:14;;;;;;;47.75;25.65;;;;;;;-0.27;81.21;101305.09;1785893;79;20978;-82
2021/11/26 06:07:41;;;;;;;44.48;25.90;;;;;;;-0.23;81.11;101305.91;1785675;79;21128;-81
2021/11/26 06:10:11;;;;;;;44.73;24.95;;;;;;;-0.14;80.89;101308.88;1785499;79;21305;-79
2021/11/26 06:12:45;;;;;;;48.05;24.07;;;;;;;-0.09;80.73;101304.55;1785698;79;21424;-79
2021/11/26 06:15:13;;;;;;;47.00;25.17;;;;;;;-0.04;80.62;101313.99;1786029;79;20934;-81
2021/11/26 06:17:44;;;;;;;51.28;28.55;;;;;;;0.01;80.57;101309.25;1785760;79;21056;-80
2021/11/26 06:20:13;;;;;;;55.05;27.32;;;;;;;0.05;80.44;101309.66;1786259;79;21686;-80
2021/11/26 06:22:41;;;;;;;47.33;24.75;;;;;;;0.11;80.25;101317.34;1786613;79;20956;-80
2021/11/26 06:25:10;;;;;;;43.87;24.77;;;;;;;0.13;80.11;101310.02;1787738;79;20927;-79
2021/11/26 06:27:37;;;;;;;43.02;25.70;;;;;;;0.16;80.05;101312.59;1785961;79;20903;-81
2021/11/26 06:30:05;;;;;;;44.00;25.15;;;;;;;0.18;80.06;101303.12;1785516;79;21559;-82
2021/11/26 06:32:33;;;;;;;52.80;26.87;;;;;;;0.23;80.04;101313.86;1786183;79;21336;-81
2021/11/26 06:35:00;;;;;;;42.17;25.23;;;;;;;0.30;80.01;101316.38;1785431;79;20847;-80
2021/11/26 06:37:27;;;;;;;50.88;25.30;;;;;;;0.41;79.74;101315.86;1785957;79;20994;-80
2021/11/26 06:39:53;;;;;;;47.70;24.75;;;;;;;0.50;79.60;101323.12;1785619;79;20899;-80
2021/11/26 06:42:22;;;;;;;49.48;27.15;;;;;;;0.57;79.51;101319.62;1785459;79;20851;-81
2021/11/26 06:44:52;;;;;;;53.33;26.00;;;;;;;0.65;79.31;101314.42;1785596;79;21155;-79
2021/11/26 06:47:20;;;;;;;60.78;28.47;;;;;;;0.74;78.98;101320.36;1785785;79;20926;-84
2021/11/26 06:49:48;;;;;;;44.90;24.87;;;;;;;0.82;78.70;101321.16;1792932;78;20984;-84
2021/11/26 06:52:16;;;;;;;45.23;25.45;;;;;;;0.91;78.46;101314.19;1794854;78;20898;-81
2021/11/26 06:54:43;;;;;;;49.33;26.48;;;;;;;1.00;78.29;101319.27;1794636;79;20938;-81
2021/11/26 06:57:10;;;;;;;49.23;26.10;;;;;;;1.07;77.99;101316.19;1794607;78;21140;-82
2021/11/26 06:59:37;;;;;;;52.62;28.02;;;;;;;1.12;77.72;101317.87;1794562;78;20918;-82
2021/11/26 07:02:05;;;;;;;53.28;26.70;;;;;;;1.18;77.50;101315.67;1794715;78;20930;-80
2021/11/26 07:04:32;;;;;;;47.85;26.75;;;;;;;1.23;77.33;101308.28;1794333;78;20854;-82
2021/11/26 07:07:00;;;;;;;53.85;27.20;;;;;;;1.31;77.21;101294.01;1794527;78;20914;-80
2021/11/26 07:09:30;;;;;;;52.13;26.75;;;;;;;1.40;77.05;101299.07;1794541;80;21149;-79
2021/11/26 07:11:57;;;;;;;60.75;29.25;;;;;;;1.43;76.80;101294.30;1794888;78;21419;-81
2021/11/26 07:14:26;;;;;;;54.20;26.80;;;;;;;1.45;76.64;101306.33;1794550;79;20989;-82
2021/11/26 07:16:54;;;;;;;42.93;26.12;;;;;;;1.45;76.58;101307.62;1794739;78;20981;-79
2021/11/26 07:19:21;;;;;;;47.55;24.92;;;;;;;1.44;76.50;101302.45;1796760;78;21309;-79
2021/11/26 07:21:49;;;;;;;45.92;25.08;;;;;;;1.43;76.59;101305.93;1795509;78;21142;-81
2021/11/26 07:24:17;;;;;;;43.50;25.23;;;;;;;1.41;76.74;101308.52;1794965;79;20906;-79
2021/11/26 07:26:47;;;;;;;46.48;24.70;;;;;;;1.40;76.89;101297.78;1762115;79;20965;-81
2021/11/26 07:29:13;;;;;;;43.65;24.30;;;;;;;1.39;76.99;101296.49;1794814;78;20934;-81
2021/11/26 07:31:40;;;;;;;50.12;25.15;;;;;;;1.40;77.15;101292.61;1794734;79;20906;-80
2021/11/26 07:34:08;;;;;;;45.73;25.37;;;;;;;1.41;77.24;101282.67;1794307;78;21139;-82
2021/11/26 07:36:35;;;;;;;45.45;23.20;;;;;;;1.42;77.30;101296.03;1794499;78;20898;-83
2021/11/26 07:39:02;;;;;;;45.55;24.80;;;;;;;1.44;77.36;101294.26;1794763;78;20875;-81
2021/11/26 07:41:29;;;;;;;47.15;26.10;;;;;;;1.48;77.47;101290.37;1794350;78;20894;-81
2021/11/26 07:43:56;;;;;;;44.00;26.60;;;;;;;1.49;77.53;101291.66;1794744;78;20870;-77
2021/11/26 07:46:23;;;;;;;50.33;26.27;;;;;;;1.53;77.65;101287.28;1794634;78;21867;-81
2021/11/26 07:48:50;;;;;;;48.30;27.52;;;;;;;1.55;77.71;101273.91;1795911;79;21445;-78
2021/11/26 07:51:17;;;;;;;52.33;28.20;;;;;;;1.60;77.75;101270.82;1799223;79;20870;-80
2021/11/26 07:53:44;;;;;;;49.40;25.35;;;;;;;1.65;77.72;101263.88;1799484;78;20962;-80
2021/11/26 07:56:11;;;;;;;43.65;25.27;;;;;;;1.71;77.64;101268.10;1799163;79;20934;-81
2021/11/26 07:58:37;;;;;;;41.45;23.65;;;;;;;1.76;77.61;101271.50;1799501;78;21090;-81
2021/11/26 08:03:23;;;;;;;49.08;26.50;;;;;;;1.91;77.60;101262.22;1798861;79;22532;-80
2021/11/26 08:05:51;;;;;;;44.98;25.95;;;;;;;1.93;77.57;101255.30;1758631;81;20884;-83
2021/11/26 08:08:19;;;;;;;43.48;24.85;;;;;;;1.98;77.48;101260.41;1758825;81;20940;-80
2021/11/26 08:10:47;;;;;;;45.05;25.45;;;;;;;2.03;77.37;101268.53;1759105;81;21011;-81
2021/11/26 08:13:14;;;;;;;53.28;27.35;;;;;;;2.08;77.33;101272.34;1760204;80;20986;-81
2021/11/26 08:15:41;;;;;;;46.02;27.30;;;;;;;2.14;77.35;101266.23;1759168;80;20936;-82
2021/11/26 08:18:09;;;;;;;40.25;22.82;;;;;;;2.19;77.32;101258.80;1758575;80;20928;-83
2021/11/26 08:20:37;;;;;;;39.90;23.67;;;;;;;2.26;77.23;101247.48;1756234;81;21147;-82
2021/11/26 08:23:06;;;;;;;43.02;24.65;;;;;;;2.34;77.14;101247.37;1750456;82;20889;-83
2021/11/26 08:25:34;;;;;;;37.80;21.52;;;;;;;2.42;77.02;101245.95;1750718;80;21543;-80
2021/11/26 08:28:01;;;;;;;33.53;21.85;;;;;;;2.51;76.76;101258.73;1750242;82;20979;-84
2021/11/26 08:30:28;;;;;;;37.90;22.58;;;;;;;2.58;76.54;101243.95;1750611;82;20952;-87
2021/11/26 08:32:55;;;;;;;40.38;23.83;;;;;;;2.65;76.41;101236.52;1750134;82;21778;-86
2021/11/26 08:35:24;;;;;;;37.67;24.25;;;;;;;2.73;76.36;101242.40;1750417;82;20995;-84
2021/11/26 08:37:50;;;;;;;40.00;24.10;;;;;;;2.82;76.20;101242.67;1750629;82;20924;-82
2021/11/26 08:40:18;;;;;;;37.55;23.70;;;;;;;2.88;75.87;101229.63;1750271;80;20936;-81
2021/11/26 08:42:45;;;;;;;39.10;22.75;;;;;;;2.94;75.67;101215.72;1750459;82;20882;-86
2021/11/26 08:45:13;;;;;;;33.95;19.62;;;;;;;2.98;75.71;101226.41;1750623;80;21105;-87
2021/11/26 08:47:41;;;;;;;39.53;23.22;;;;;;;3.05;75.62;101208.59;1750591;82;20912;-83
2021/11/26 08:50:14;;;;;;;31.25;20.80;;;;;;;3.11;75.21;101220.98;1750588;82;20987;-82
2021/11/26 08:52:40;;;;;;;31.75;20.80;;;;;;;3.19;75.04;101222.57;1750135;80;20967;-80
2021/11/26 08:55:11;;;;;;;38.40;19.87;;;;;;;3.26;74.93;101228.88;1750569;80;20995;-79
2021/11/26 08:57:36;;;;;;;32.73;20.48;;;;;;;3.37;74.82;101228.67;1750196;81;21160;-84
2021/11/26 09:00:05;;;;;;;32.80;19.70;;;;;;;3.47;74.66;101220.28;1750546;80;20916;-84
2021/11/26 09:02:32;;;;;;;31.85;19.15;;;;;;;3.55;74.13;101213.17;1743260;81;20921;-80
2021/11/26 09:04:59;;;;;;;31.15;17.85;;;;;;;3.64;74.04;101217.31;1737122;81;20937;-79
2021/11/26 09:07:26;;;;;;;26.97;18.73;;;;;;;3.72;73.65;101217.55;1738046;82;20996;-78
2021/11/26 09:09:54;;;;;;;24.30;16.52;;;;;;;3.79;73.40;101209.64;1737916;82;21188;-82
2021/11/26 09:12:24;;;;;;;21.90;15.30;;;;;;;3.85;73.09;101210.36;1736833;82;20866;-78
2021/11/26 09:14:50;;;;;;;21.68;15.28;;;;;;;3.91;72.90;101210.23;1736404;81;20885;-79
2021/11/26 09:17:19;;;;;;;22.30;16.17;;;;;;;3.98;72.55;101212.23;1736797;82;21442;-78
2021/11/26 09:19:46;;;;;;;31.10;18.27;;;;;;;4.04;72.41;101211.23;1736649;82;20968;-79
2021/11/26 09:22:13;;;;;;;21.65;14.87;;;;;;;4.10;72.19;101212.39;1736368;82;21132;-79
2021/11/26 09:24:40;;;;;;;22.22;13.83;;;;;;;4.15;71.66;101205.34;1736378;81;20917;-79
2021/11/26 09:27:07;;;;;;;21.00;13.72;;;;;;;4.22;71.12;101206.89;1736674;82;20988;-79
2021/11/26 09:29:34;;;;;;;18.48;13.95;;;;;;;4.27;70.83;101198.98;1736324;82;20925;-79
2021/11/26 09:32:01;;;;;;;21.70;14.47;;;;;;;4.32;70.69;101194.09;1736630;82;20885;-78
2021/11/26 09:34:30;;;;;;;19.50;13.80;;;;;;;4.39;70.37;101196.55;1736383;82;20983;-79
2021/11/26 09:36:57;;;;;;;23.65;14.25;;;;;;;4.43;69.67;101180.85;1736485;81;21466;-79
2021/11/26 09:39:27;;;;;;;19.73;13.93;;;;;;;4.49;69.57;101181.12;1736779;82;20888;-79
2021/11/26 09:41:56;;;;;;;21.68;14.55;;;;;;;4.52;69.47;101165.48;1736557;81;20925;-81
2021/11/26 09:44:23;;;;;;;19.87;14.47;;;;;;;4.54;69.52;101159.35;1736185;82;20893;-79
2021/11/26 09:46:56;;;;;;;22.62;16.00;;;;;;;4.59;69.53;101164.88;1736288;82;21127;-78
2021/11/26 09:49:23;;;;;;;23.00;14.35;;;;;;;4.63;69.35;101162.61;1736176;82;20881;-78
2021/11/26 09:51:50;;;;;;;21.02;15.10;;;;;;;4.66;69.27;101163.81;1736546;81;20893;-80
2021/11/26 09:54:18;;;;;;;24.15;14.70;;;;;;;4.69;69.19;101158.10;1736223;82;20953;-78
2021/11/26 09:56:45;;;;;;;24.82;15.48;;;;;;;4.73;69.21;101157.09;1736649;82;20846;-78
2021/11/26 09:59:12;;;;;;;20.35;14.18;;;;;;;4.80;69.05;101156.94;1736507;82;21130;-79
2021/11/26 10:01:40;;;;;;;21.07;13.85;;;;;;;4.86;68.79;101167.17;1737286;81;21027;-78
2021/11/26 10:04:18;;;;;;;27.40;16.45;;;;;;;4.91;68.35;101162.69;1751237;82;21461;-81
2021/11/26 10:06:45;;;;;;;24.60;14.55;;;;;;;4.97;68.34;101167.73;1750486;82;20940;-80
2021/11/26 10:09:19;;;;;;;24.52;16.17;;;;;;;5.02;68.14;101159.34;1750382;82;20892;-80
2021/11/26 10:11:57;;;;;;;21.52;14.63;;;;;;;5.06;68.12;101149.27;1750052;82;21119;-80
2021/11/26 10:14:33;;;;;;;20.08;14.00;;;;;;;5.10;68.02;101152.64;1750394;82;21509;-77
2021/11/26 10:17:16;;;;;;;25.37;15.80;;;;;;;5.14;67.99;101152.51;1750594;82;20884;-79
2021/11/26 10:20:04;;;;;;;24.70;15.63;;;;;;;5.17;67.91;101149.80;1750145;82;20939;-79
2021/11/26 10:22:42;;;;;;;21.05;13.68;;;;;;;5.21;67.79;101144.08;1750447;81;20961;-78
2021/11/26 10:25:15;;;;;;;20.45;14.60;;;;;;;5.26;67.56;101143.48;1750429;82;21749;-80
2021/11/26 10:27:51;;;;;;;25.32;15.80;;;;;;;5.31;67.60;101136.39;1750104;82;20912;-79
2021/11/26 10:30:36;;;;;;;22.67;15.08;;;;;;;5.36;67.67;101132.38;1750140;82;20943;-77
2021/11/26 10:33:22;;;;;;;21.20;15.00;;;;;;;5.42;67.05;101135.23;1750548;82;20936;-77
2021/11/26 10:35:53;;;;;;;19.10;13.38;;;;;;;5.47;66.82;101130.31;1750381;82;21509;-79
2021/11/26 10:38:28;;;;;;;21.50;14.03;;;;;;;5.54;66.40;101138.77;1750464;82;21713;-78
2021/11/26 10:41:02;;;;;;;19.42;14.00;;;;;;;5.58;66.35;101128.65;1750164;80;20928;-84
2021/11/26 10:43:59;;;;;;;22.37;15.20;;;;;;;5.64;66.10;101125.02;1750768;80;21435;-80
2021/11/26 10:46:27;;;;;;;22.52;14.25;;;;;;;5.74;65.82;101120.78;1740316;82;20885;-77
2021/11/26 10:59:39;;;;;;;21.62;15.10;;;;;;;5.83;65.37;101112.29;1751453;80;20947;-84
2021/11/26 11:02:08;;;;;;;23.70;16.00;;;;;;;5.83;65.49;101104.02;1749179;80;20987;-84
2021/11/26 11:04:37;;;;;;;22.65;15.55;;;;;;;5.85;65.51;101109.16;1716147;82;20956;-83
2021/11/26 11:07:09;;;;;;;28.73;18.00;;;;;;;5.86;65.41;101100.47;1736507;82;20928;-82
2021/11/26 11:09:44;;;;;;;23.45;14.68;;;;;;;5.89;65.31;101092.12;1736411;82;20940;-76
2021/11/26 11:12:11;;;;;;;;;;;;;;;5.95;65.08;101092.38;1738793;82;20933;-76
2021/11/26 11:14:38;;;;;;;22.17;14.30;;;;;;;5.97;65.02;101088.82;1736222;82;20091;-74
2021/11/26 11:17:06;;;;;;;21.42;14.47;;;;;;;6.00;65.04;101095.25;1715333;82;21136;-75
2021/11/26 11:19:32;;;;;;;22.85;14.65;;;;;;;6.05;64.94;101095.52;1736397;81;21347;-75
2021/11/26 11:21:59;;;;;;;23.30;15.45;;;;;;;6.09;64.86;101086.28;1736072;82;21049;-76
2021/11/26 11:24:27;;;;;;;23.25;16.42;;;;;;;6.13;64.86;101089.16;1736045;82;21352;-75
2021/11/26 11:26:55;;;;;;;21.30;15.20;;;;;;;6.16;64.66;101084.31;1736192;82;20913;-75
2021/11/26 11:29:25;;;;;;;24.72;15.20;;;;;;;6.20;64.54;101088.06;1736792;82;21772;-74